sensor_id;sensor_type;location;lat;lon;timestamp;P1;durP1;ratioP1;P2;durP2;ratioP2
13951;SDS011;39535;52.192;9.886;2023-10-19T00:00:30;21.63;;;19.67;;
13951;SDS011;39535;52.192;9.886;2023-10-19T00:02:58;22.17;;;20.43;;
13951;SDS011;39535;52.192;9.886;2023-10-19T00:05:27;22.47;;;20.57;;
13951;SDS011;39535;52.192;9.886;2023-10-19T00:07:56;21.73;;;19.97;;
13951;SDS011;39535;52.192;9.886;2023-10-19T00:10:22;22.23;;;20.30;;
13951;SDS011;39535;52.192;9.886;2023-10-19T00:12:51;23.03;;;20.90;;
13951;SDS011;39535;52.192;9.886;2023-10-19T00:15:25;22.00;;;20.10;;
13951;SDS011;39535;52.192;9.886;2023-10-19T00:17:55;22.73;;;20.67;;
13951;SDS011;39535;52.192;9.886;2023-10-19T00:20:21;22.40;;;20.33;;
13951;SDS011;39535;52.192;9.886;2023-10-19T00:23:15;21.60;;;19.47;;
13951;SDS011;39535;52.192;9.886;2023-10-19T00:25:43;22.60;;;20.80;;
13951;SDS011;39535;52.192;9.886;2023-10-19T00:28:16;22.70;;;20.73;;
13951;SDS011;39535;52.192;9.886;2023-10-19T00:30:42;23.13;;;20.90;;
13951;SDS011;39535;52.192;9.886;2023-10-19T00:33:10;22.60;;;20.63;;
13951;SDS011;39535;52.192;9.886;2023-10-19T00:35:42;22.87;;;20.97;;
13951;SDS011;39535;52.192;9.886;2023-10-19T00:38:23;23.47;;;21.23;;
13951;SDS011;39535;52.192;9.886;2023-10-19T00:41:06;24.23;;;21.83;;
13951;SDS011;39535;52.192;9.886;2023-10-19T00:43:37;24.73;;;22.40;;
13951;SDS011;39535;52.192;9.886;2023-10-19T00:46:08;23.40;;;21.47;;
13951;SDS011;39535;52.192;9.886;2023-10-19T00:48:40;23.43;;;21.33;;
13951;SDS011;39535;52.192;9.886;2023-10-19T00:51:07;24.73;;;22.30;;
13951;SDS011;39535;52.192;9.886;2023-10-19T00:53:40;24.57;;;22.17;;
13951;SDS011;39535;52.192;9.886;2023-10-19T00:56:06;23.23;;;21.40;;
13951;SDS011;39535;52.192;9.886;2023-10-19T00:58:36;24.67;;;22.37;;
13951;SDS011;39535;52.192;9.886;2023-10-19T01:01:06;25.83;;;23.40;;
13951;SDS011;39535;52.192;9.886;2023-10-19T01:03:33;23.03;;;21.03;;
13951;SDS011;39535;52.192;9.886;2023-10-19T01:06:03;26.13;;;23.47;;
13951;SDS011;39535;52.192;9.886;2023-10-19T01:08:35;27.67;;;25.00;;
13951;SDS011;39535;52.192;9.886;2023-10-19T01:11:07;26.17;;;23.77;;
13951;SDS011;39535;52.192;9.886;2023-10-19T01:13:37;26.73;;;24.00;;
13951;SDS011;39535;52.192;9.886;2023-10-19T01:16:03;25.93;;;23.27;;
13951;SDS011;39535;52.192;9.886;2023-10-19T01:18:30;26.13;;;23.63;;
13951;SDS011;39535;52.192;9.886;2023-10-19T01:20:57;26.80;;;24.10;;
13951;SDS011;39535;52.192;9.886;2023-10-19T01:23:29;27.20;;;24.13;;
13951;SDS011;39535;52.192;9.886;2023-10-19T01:25:55;26.20;;;23.93;;
13951;SDS011;39535;52.192;9.886;2023-10-19T01:28:31;26.23;;;23.93;;
13951;SDS011;39535;52.192;9.886;2023-10-19T01:31:08;27.07;;;24.40;;
13951;SDS011;39535;52.192;9.886;2023-10-19T01:33:40;27.73;;;24.77;;
13951;SDS011;39535;52.192;9.886;2023-10-19T01:36:08;27.73;;;24.93;;
13951;SDS011;39535;52.192;9.886;2023-10-19T01:38:40;26.17;;;23.67;;
13951;SDS011;39535;52.192;9.886;2023-10-19T01:41:07;26.33;;;24.03;;
13951;SDS011;39535;52.192;9.886;2023-10-19T01:43:38;27.77;;;25.10;;
13951;SDS011;39535;52.192;9.886;2023-10-19T01:46:05;26.33;;;23.60;;
13951;SDS011;39535;52.192;9.886;2023-10-19T01:48:36;28.73;;;25.97;;
13951;SDS011;39535;52.192;9.886;2023-10-19T01:51:04;27.90;;;25.20;;
13951;SDS011;39535;52.192;9.886;2023-10-19T01:53:31;26.63;;;23.90;;
13951;SDS011;39535;52.192;9.886;2023-10-19T01:55:58;27.00;;;24.27;;
13951;SDS011;39535;52.192;9.886;2023-10-19T01:58:24;26.37;;;23.93;;
13951;SDS011;39535;52.192;9.886;2023-10-19T02:00:50;25.63;;;23.20;;
13951;SDS011;39535;52.192;9.886;2023-10-19T02:03:19;25.80;;;23.60;;
13951;SDS011;39535;52.192;9.886;2023-10-19T02:05:46;25.40;;;23.07;;
13951;SDS011;39535;52.192;9.886;2023-10-19T02:08:14;24.80;;;22.67;;
13951;SDS011;39535;52.192;9.886;2023-10-19T02:10:45;27.17;;;24.50;;
13951;SDS011;39535;52.192;9.886;2023-10-19T02:13:14;27.33;;;24.63;;
13951;SDS011;39535;52.192;9.886;2023-10-19T02:15:42;27.20;;;24.63;;
13951;SDS011;39535;52.192;9.886;2023-10-19T02:18:09;27.03;;;24.43;;
13951;SDS011;39535;52.192;9.886;2023-10-19T02:20:35;25.93;;;23.73;;
13951;SDS011;39535;52.192;9.886;2023-10-19T02:23:05;26.00;;;23.57;;
13951;SDS011;39535;52.192;9.886;2023-10-19T02:25:31;25.67;;;23.13;;
13951;SDS011;39535;52.192;9.886;2023-10-19T02:28:02;25.63;;;23.43;;
13951;SDS011;39535;52.192;9.886;2023-10-19T02:30:30;25.10;;;22.97;;
13951;SDS011;39535;52.192;9.886;2023-10-19T02:32:59;25.53;;;23.23;;
13951;SDS011;39535;52.192;9.886;2023-10-19T02:35:25;26.20;;;23.80;;
13951;SDS011;39535;52.192;9.886;2023-10-19T02:37:52;26.93;;;24.47;;
13951;SDS011;39535;52.192;9.886;2023-10-19T02:40:18;27.50;;;24.80;;
13951;SDS011;39535;52.192;9.886;2023-10-19T02:42:45;30.53;;;25.00;;
13951;SDS011;39535;52.192;9.886;2023-10-19T02:45:14;27.13;;;24.63;;
13951;SDS011;39535;52.192;9.886;2023-10-19T02:47:42;27.63;;;24.77;;
13951;SDS011;39535;52.192;9.886;2023-10-19T02:50:10;26.37;;;24.10;;
13951;SDS011;39535;52.192;9.886;2023-10-19T02:52:38;27.80;;;25.23;;
13951;SDS011;39535;52.192;9.886;2023-10-19T02:55:06;27.33;;;24.53;;
13951;SDS011;39535;52.192;9.886;2023-10-19T02:57:32;27.07;;;24.20;;
13951;SDS011;39535;52.192;9.886;2023-10-19T02:59:58;26.83;;;24.43;;
13951;SDS011;39535;52.192;9.886;2023-10-19T03:02:25;27.10;;;24.67;;
13951;SDS011;39535;52.192;9.886;2023-10-19T03:04:54;25.57;;;23.17;;
13951;SDS011;39535;52.192;9.886;2023-10-19T03:07:20;27.03;;;24.43;;
13951;SDS011;39535;52.192;9.886;2023-10-19T03:09:46;25.63;;;23.33;;
13951;SDS011;39535;52.192;9.886;2023-10-19T03:12:18;26.73;;;24.33;;
13951;SDS011;39535;52.192;9.886;2023-10-19T03:14:46;26.67;;;24.03;;
13951;SDS011;39535;52.192;9.886;2023-10-19T03:17:13;26.80;;;24.00;;
13951;SDS011;39535;52.192;9.886;2023-10-19T03:19:39;25.57;;;23.23;;
13951;SDS011;39535;52.192;9.886;2023-10-19T03:22:06;26.23;;;23.83;;
13951;SDS011;39535;52.192;9.886;2023-10-19T03:24:34;26.33;;;24.00;;
13951;SDS011;39535;52.192;9.886;2023-10-19T03:27:06;27.00;;;24.40;;
13951;SDS011;39535;52.192;9.886;2023-10-19T03:29:37;26.80;;;24.13;;
13951;SDS011;39535;52.192;9.886;2023-10-19T03:32:05;26.40;;;23.87;;
13951;SDS011;39535;52.192;9.886;2023-10-19T03:34:32;26.63;;;24.17;;
13951;SDS011;39535;52.192;9.886;2023-10-19T03:36:58;24.73;;;22.47;;
13951;SDS011;39535;52.192;9.886;2023-10-19T03:39:31;25.30;;;23.00;;
13951;SDS011;39535;52.192;9.886;2023-10-19T03:42:00;25.37;;;23.17;;
13951;SDS011;39535;52.192;9.886;2023-10-19T03:44:27;25.00;;;22.77;;
13951;SDS011;39535;52.192;9.886;2023-10-19T03:47:04;26.13;;;23.90;;
13951;SDS011;39535;52.192;9.886;2023-10-19T03:49:36;25.57;;;23.27;;
13951;SDS011;39535;52.192;9.886;2023-10-19T03:52:04;25.23;;;22.77;;
13951;SDS011;39535;52.192;9.886;2023-10-19T03:54:46;26.30;;;23.73;;
13951;SDS011;39535;52.192;9.886;2023-10-19T03:57:13;25.07;;;22.87;;
13951;SDS011;39535;52.192;9.886;2023-10-19T03:59:44;26.40;;;23.87;;
13951;SDS011;39535;52.192;9.886;2023-10-19T04:02:12;24.00;;;21.80;;
13951;SDS011;39535;52.192;9.886;2023-10-19T04:04:39;26.03;;;23.70;;
13951;SDS011;39535;52.192;9.886;2023-10-19T04:07:08;24.27;;;22.13;;
13951;SDS011;39535;52.192;9.886;2023-10-19T04:09:43;25.87;;;23.60;;
13951;SDS011;39535;52.192;9.886;2023-10-19T04:12:26;24.97;;;22.73;;
13951;SDS011;39535;52.192;9.886;2023-10-19T04:14:55;24.63;;;22.43;;
13951;SDS011;39535;52.192;9.886;2023-10-19T04:17:22;24.07;;;21.97;;
13951;SDS011;39535;52.192;9.886;2023-10-19T04:19:48;25.50;;;22.97;;
13951;SDS011;39535;52.192;9.886;2023-10-19T04:22:16;25.73;;;23.53;;
13951;SDS011;39535;52.192;9.886;2023-10-19T04:24:48;24.97;;;22.57;;
13951;SDS011;39535;52.192;9.886;2023-10-19T04:27:14;24.83;;;22.63;;
13951;SDS011;39535;52.192;9.886;2023-10-19T04:29:42;24.00;;;21.93;;
13951;SDS011;39535;52.192;9.886;2023-10-19T04:32:10;25.37;;;22.97;;
13951;SDS011;39535;52.192;9.886;2023-10-19T04:34:39;23.20;;;21.40;;
13951;SDS011;39535;52.192;9.886;2023-10-19T04:37:05;23.80;;;21.90;;
13951;SDS011;39535;52.192;9.886;2023-10-19T04:39:33;22.87;;;20.93;;
13951;SDS011;39535;52.192;9.886;2023-10-19T04:42:01;23.23;;;21.33;;
13951;SDS011;39535;52.192;9.886;2023-10-19T04:44:27;21.77;;;20.07;;
13951;SDS011;39535;52.192;9.886;2023-10-19T04:46:57;22.03;;;20.03;;
13951;SDS011;39535;52.192;9.886;2023-10-19T04:49:23;22.20;;;20.40;;
13951;SDS011;39535;52.192;9.886;2023-10-19T04:51:50;22.23;;;20.33;;
13951;SDS011;39535;52.192;9.886;2023-10-19T04:54:16;21.63;;;19.67;;
13951;SDS011;39535;52.192;9.886;2023-10-19T04:56:43;21.70;;;20.00;;
13951;SDS011;39535;52.192;9.886;2023-10-19T04:59:09;19.93;;;18.33;;
13951;SDS011;39535;52.192;9.886;2023-10-19T05:01:35;21.17;;;19.47;;
13951;SDS011;39535;52.192;9.886;2023-10-19T05:04:03;20.43;;;18.93;;
13951;SDS011;39535;52.192;9.886;2023-10-19T05:06:30;19.43;;;17.93;;
13951;SDS011;39535;52.192;9.886;2023-10-19T05:08:56;21.00;;;19.30;;
13951;SDS011;39535;52.192;9.886;2023-10-19T05:11:23;19.33;;;17.83;;
13951;SDS011;39535;52.192;9.886;2023-10-19T05:13:49;19.07;;;17.57;;
13951;SDS011;39535;52.192;9.886;2023-10-19T05:16:16;19.20;;;17.70;;
13951;SDS011;39535;52.192;9.886;2023-10-19T05:18:42;19.37;;;17.80;;
13951;SDS011;39535;52.192;9.886;2023-10-19T05:21:10;18.80;;;17.40;;
13951;SDS011;39535;52.192;9.886;2023-10-19T05:23:37;18.93;;;17.43;;
13951;SDS011;39535;52.192;9.886;2023-10-19T05:26:04;17.73;;;16.33;;
13951;SDS011;39535;52.192;9.886;2023-10-19T05:28:31;19.30;;;17.80;;
13951;SDS011;39535;52.192;9.886;2023-10-19T05:30:58;19.60;;;17.87;;
13951;SDS011;39535;52.192;9.886;2023-10-19T05:33:26;18.33;;;16.83;;
13951;SDS011;39535;52.192;9.886;2023-10-19T05:35:54;18.63;;;17.23;;
13951;SDS011;39535;52.192;9.886;2023-10-19T05:38:22;17.97;;;16.67;;
13951;SDS011;39535;52.192;9.886;2023-10-19T05:40:49;19.07;;;17.67;;
13951;SDS011;39535;52.192;9.886;2023-10-19T05:43:17;19.10;;;17.50;;
13951;SDS011;39535;52.192;9.886;2023-10-19T05:45:43;18.83;;;17.27;;
13951;SDS011;39535;52.192;9.886;2023-10-19T05:48:15;18.93;;;17.40;;
13951;SDS011;39535;52.192;9.886;2023-10-19T05:50:41;18.17;;;16.73;;
13951;SDS011;39535;52.192;9.886;2023-10-19T05:53:08;18.80;;;17.30;;
13951;SDS011;39535;52.192;9.886;2023-10-19T05:55:36;18.40;;;16.90;;
13951;SDS011;39535;52.192;9.886;2023-10-19T05:58:04;18.83;;;17.17;;
13951;SDS011;39535;52.192;9.886;2023-10-19T06:00:32;18.70;;;17.23;;
13951;SDS011;39535;52.192;9.886;2023-10-19T06:02:59;18.20;;;16.80;;
13951;SDS011;39535;52.192;9.886;2023-10-19T06:05:27;16.77;;;15.57;;
13951;SDS011;39535;52.192;9.886;2023-10-19T06:07:55;17.47;;;16.17;;
13951;SDS011;39535;52.192;9.886;2023-10-19T06:10:21;16.27;;;15.07;;
13951;SDS011;39535;52.192;9.886;2023-10-19T06:12:50;16.63;;;15.40;;
13951;SDS011;39535;52.192;9.886;2023-10-19T06:15:17;17.37;;;15.87;;
13951;SDS011;39535;52.192;9.886;2023-10-19T06:17:48;16.37;;;15.07;;
13951;SDS011;39535;52.192;9.886;2023-10-19T06:20:15;15.60;;;14.40;;
13951;SDS011;39535;52.192;9.886;2023-10-19T06:22:51;14.93;;;13.83;;
13951;SDS011;39535;52.192;9.886;2023-10-19T06:25:18;15.73;;;14.53;;
13951;SDS011;39535;52.192;9.886;2023-10-19T06:27:46;15.53;;;14.33;;
13951;SDS011;39535;52.192;9.886;2023-10-19T06:30:15;14.53;;;13.53;;
13951;SDS011;39535;52.192;9.886;2023-10-19T06:32:45;14.17;;;13.07;;
13951;SDS011;39535;52.192;9.886;2023-10-19T06:35:13;14.17;;;13.17;;
13951;SDS011;39535;52.192;9.886;2023-10-19T06:37:39;13.83;;;12.73;;
13951;SDS011;39535;52.192;9.886;2023-10-19T06:40:06;13.23;;;12.23;;
13951;SDS011;39535;52.192;9.886;2023-10-19T06:42:33;13.53;;;12.53;;
13951;SDS011;39535;52.192;9.886;2023-10-19T06:45:00;14.07;;;12.87;;
13951;SDS011;39535;52.192;9.886;2023-10-19T06:47:28;13.40;;;12.40;;
13951;SDS011;39535;52.192;9.886;2023-10-19T06:49:55;13.40;;;12.40;;
13951;SDS011;39535;52.192;9.886;2023-10-19T06:52:22;12.70;;;11.70;;
13951;SDS011;39535;52.192;9.886;2023-10-19T06:54:49;12.77;;;11.87;;
13951;SDS011;39535;52.192;9.886;2023-10-19T06:57:15;12.50;;;11.60;;
13951;SDS011;39535;52.192;9.886;2023-10-19T06:59:42;12.53;;;11.63;;
13951;SDS011;39535;52.192;9.886;2023-10-19T07:02:08;12.00;;;11.10;;
13951;SDS011;39535;52.192;9.886;2023-10-19T07:04:39;11.83;;;10.83;;
13951;SDS011;39535;52.192;9.886;2023-10-19T07:07:05;11.40;;;10.60;;
13951;SDS011;39535;52.192;9.886;2023-10-19T07:09:33;11.63;;;10.83;;
13951;SDS011;39535;52.192;9.886;2023-10-19T07:11:59;12.30;;;11.40;;
13951;SDS011;39535;52.192;9.886;2023-10-19T07:14:26;11.60;;;10.80;;
13951;SDS011;39535;52.192;9.886;2023-10-19T07:16:52;11.40;;;10.60;;
13951;SDS011;39535;52.192;9.886;2023-10-19T07:19:19;11.17;;;10.37;;
13951;SDS011;39535;52.192;9.886;2023-10-19T07:21:46;11.07;;;10.27;;
13951;SDS011;39535;52.192;9.886;2023-10-19T07:24:18;11.17;;;10.37;;
13951;SDS011;39535;52.192;9.886;2023-10-19T07:26:48;10.20;;;9.50;;
13951;SDS011;39535;52.192;9.886;2023-10-19T07:29:28;10.87;;;10.07;;
13951;SDS011;39535;52.192;9.886;2023-10-19T07:31:55;11.67;;;10.87;;
13951;SDS011;39535;52.192;9.886;2023-10-19T07:34:23;10.43;;;9.63;;
13951;SDS011;39535;52.192;9.886;2023-10-19T07:36:54;11.23;;;10.43;;
13951;SDS011;39535;52.192;9.886;2023-10-19T07:39:24;11.13;;;10.33;;
13951;SDS011;39535;52.192;9.886;2023-10-19T07:41:51;11.33;;;10.43;;
13951;SDS011;39535;52.192;9.886;2023-10-19T07:44:18;10.10;;;9.40;;
13951;SDS011;39535;52.192;9.886;2023-10-19T07:46:44;11.17;;;10.37;;
13951;SDS011;39535;52.192;9.886;2023-10-19T07:49:11;10.73;;;9.97;;
13951;SDS011;39535;52.192;9.886;2023-10-19T07:51:40;10.67;;;9.97;;
13951;SDS011;39535;52.192;9.886;2023-10-19T07:54:12;10.43;;;9.67;;
13951;SDS011;39535;52.192;9.886;2023-10-19T07:56:38;10.30;;;9.60;;
13951;SDS011;39535;52.192;9.886;2023-10-19T07:59:05;9.20;;;8.60;;
13951;SDS011;39535;52.192;9.886;2023-10-19T08:01:32;10.23;;;9.43;;
13951;SDS011;39535;52.192;9.886;2023-10-19T08:03:59;10.07;;;9.37;;
13951;SDS011;39535;52.192;9.886;2023-10-19T08:06:26;10.17;;;9.37;;
13951;SDS011;39535;52.192;9.886;2023-10-19T08:08:52;9.57;;;8.97;;
13951;SDS011;39535;52.192;9.886;2023-10-19T08:11:21;10.17;;;9.47;;
13951;SDS011;39535;52.192;9.886;2023-10-19T08:13:48;9.77;;;9.07;;
13951;SDS011;39535;52.192;9.886;2023-10-19T08:16:14;10.13;;;9.43;;
13951;SDS011;39535;52.192;9.886;2023-10-19T08:18:41;10.40;;;9.70;;
13951;SDS011;39535;52.192;9.886;2023-10-19T08:21:08;10.43;;;9.73;;
13951;SDS011;39535;52.192;9.886;2023-10-19T08:23:34;9.83;;;9.13;;
13951;SDS011;39535;52.192;9.886;2023-10-19T08:26:02;9.67;;;8.97;;
13951;SDS011;39535;52.192;9.886;2023-10-19T08:28:31;9.90;;;9.20;;
13951;SDS011;39535;52.192;9.886;2023-10-19T08:30:58;10.40;;;9.70;;
13951;SDS011;39535;52.192;9.886;2023-10-19T08:33:26;11.07;;;10.07;;
13951;SDS011;39535;52.192;9.886;2023-10-19T08:35:54;9.90;;;9.20;;
13951;SDS011;39535;52.192;9.886;2023-10-19T08:38:22;10.50;;;9.70;;
13951;SDS011;39535;52.192;9.886;2023-10-19T08:40:49;9.90;;;9.20;;
13951;SDS011;39535;52.192;9.886;2023-10-19T08:43:16;10.53;;;9.73;;
13951;SDS011;39535;52.192;9.886;2023-10-19T08:45:45;10.10;;;9.40;;
13951;SDS011;39535;52.192;9.886;2023-10-19T08:48:12;9.53;;;8.90;;
13951;SDS011;39535;52.192;9.886;2023-10-19T08:50:39;10.40;;;9.70;;
13951;SDS011;39535;52.192;9.886;2023-10-19T08:53:06;10.50;;;9.80;;
13951;SDS011;39535;52.192;9.886;2023-10-19T08:55:34;10.73;;;9.93;;
13951;SDS011;39535;52.192;9.886;2023-10-19T08:58:01;10.93;;;10.13;;
13951;SDS011;39535;52.192;9.886;2023-10-19T09:00:42;10.07;;;9.43;;
13951;SDS011;39535;52.192;9.886;2023-10-19T09:03:13;9.63;;;8.97;;
13951;SDS011;39535;52.192;9.886;2023-10-19T09:05:41;11.27;;;10.47;;
13951;SDS011;39535;52.192;9.886;2023-10-19T09:08:09;10.93;;;10.13;;
13951;SDS011;39535;52.192;9.886;2023-10-19T09:10:39;10.23;;;9.53;;
13951;SDS011;39535;52.192;9.886;2023-10-19T09:13:08;10.77;;;10.07;;
13951;SDS011;39535;52.192;9.886;2023-10-19T09:15:35;12.00;;;11.20;;
13951;SDS011;39535;52.192;9.886;2023-10-19T09:18:13;10.90;;;10.00;;
13951;SDS011;39535;52.192;9.886;2023-10-19T09:20:40;11.80;;;11.00;;
13951;SDS011;39535;52.192;9.886;2023-10-19T09:23:17;11.50;;;10.70;;
13951;SDS011;39535;52.192;9.886;2023-10-19T09:25:44;11.77;;;10.97;;
13951;SDS011;39535;52.192;9.886;2023-10-19T09:28:11;11.17;;;10.37;;
13951;SDS011;39535;52.192;9.886;2023-10-19T09:30:38;11.50;;;10.70;;
13951;SDS011;39535;52.192;9.886;2023-10-19T09:33:06;11.17;;;10.43;;
13951;SDS011;39535;52.192;9.886;2023-10-19T09:35:35;11.63;;;10.83;;
13951;SDS011;39535;52.192;9.886;2023-10-19T09:38:04;12.33;;;11.43;;
13951;SDS011;39535;52.192;9.886;2023-10-19T09:40:31;11.70;;;10.80;;
13951;SDS011;39535;52.192;9.886;2023-10-19T09:42:58;11.83;;;10.93;;
13951;SDS011;39535;52.192;9.886;2023-10-19T09:45:31;11.37;;;10.47;;
13951;SDS011;39535;52.192;9.886;2023-10-19T09:48:02;12.23;;;11.43;;
13951;SDS011;39535;52.192;9.886;2023-10-19T09:50:32;11.37;;;10.63;;
13951;SDS011;39535;52.192;9.886;2023-10-19T09:52:59;11.80;;;11.00;;
13951;SDS011;39535;52.192;9.886;2023-10-19T09:55:28;12.10;;;11.30;;
13951;SDS011;39535;52.192;9.886;2023-10-19T09:58:01;11.30;;;10.53;;
13951;SDS011;39535;52.192;9.886;2023-10-19T10:00:33;12.30;;;11.50;;
13951;SDS011;39535;52.192;9.886;2023-10-19T10:03:00;12.27;;;11.37;;
13951;SDS011;39535;52.192;9.886;2023-10-19T10:05:46;11.53;;;10.73;;
13951;SDS011;39535;52.192;9.886;2023-10-19T10:08:33;12.57;;;11.67;;
13951;SDS011;39535;52.192;9.886;2023-10-19T10:11:21;11.87;;;10.97;;
13951;SDS011;39535;52.192;9.886;2023-10-19T10:13:50;12.97;;;12.07;;
13951;SDS011;39535;52.192;9.886;2023-10-19T10:16:17;12.23;;;11.43;;
13951;SDS011;39535;52.192;9.886;2023-10-19T10:18:46;12.43;;;11.60;;
13951;SDS011;39535;52.192;9.886;2023-10-19T10:21:15;11.17;;;10.47;;
13951;SDS011;39535;52.192;9.886;2023-10-19T10:23:44;11.50;;;10.70;;
13951;SDS011;39535;52.192;9.886;2023-10-19T10:26:13;13.37;;;12.37;;
13951;SDS011;39535;52.192;9.886;2023-10-19T10:28:41;13.60;;;12.70;;
13951;SDS011;39535;52.192;9.886;2023-10-19T10:31:12;11.73;;;10.93;;
13951;SDS011;39535;52.192;9.886;2023-10-19T10:33:42;13.10;;;12.20;;
13951;SDS011;39535;52.192;9.886;2023-10-19T10:36:13;13.43;;;12.53;;
13951;SDS011;39535;52.192;9.886;2023-10-19T10:38:42;13.80;;;12.80;;
13951;SDS011;39535;52.192;9.886;2023-10-19T10:44:39;13.17;;;12.27;;
13951;SDS011;39535;52.192;9.886;2023-10-19T10:47:23;13.00;;;12.10;;
13951;SDS011;39535;52.192;9.886;2023-10-19T10:49:50;13.13;;;12.23;;
13951;SDS011;39535;52.192;9.886;2023-10-19T10:52:25;13.23;;;12.33;;
13951;SDS011;39535;52.192;9.886;2023-10-19T10:55:06;13.93;;;13.00;;
13951;SDS011;39535;52.192;9.886;2023-10-19T10:58:08;13.03;;;12.03;;
13951;SDS011;39535;52.192;9.886;2023-10-19T11:00:45;13.80;;;12.47;;
13951;SDS011;39535;52.192;9.886;2023-10-19T11:03:19;13.37;;;12.37;;
13951;SDS011;39535;52.192;9.886;2023-10-19T11:05:49;13.13;;;12.13;;
13951;SDS011;39535;52.192;9.886;2023-10-19T11:08:18;13.90;;;12.80;;
13951;SDS011;39535;52.192;9.886;2023-10-19T11:10:52;12.80;;;12.00;;
13951;SDS011;39535;52.192;9.886;2023-10-19T11:13:22;12.43;;;11.63;;
13951;SDS011;39535;52.192;9.886;2023-10-19T11:15:51;12.70;;;11.80;;
13951;SDS011;39535;52.192;9.886;2023-10-19T11:18:28;12.77;;;11.97;;
13951;SDS011;39535;52.192;9.886;2023-10-19T11:20:56;12.87;;;11.97;;
13951;SDS011;39535;52.192;9.886;2023-10-19T11:23:34;13.70;;;12.33;;
13951;SDS011;39535;52.192;9.886;2023-10-19T11:26:01;12.80;;;11.90;;
13951;SDS011;39535;52.192;9.886;2023-10-19T11:28:30;13.40;;;12.50;;
13951;SDS011;39535;52.192;9.886;2023-10-19T11:31:11;13.63;;;12.63;;
13951;SDS011;39535;52.192;9.886;2023-10-19T11:33:43;13.77;;;12.77;;
13951;SDS011;39535;52.192;9.886;2023-10-19T11:36:20;14.10;;;13.10;;
13951;SDS011;39535;52.192;9.886;2023-10-19T11:38:50;13.40;;;12.40;;
13951;SDS011;39535;52.192;9.886;2023-10-19T11:41:17;13.53;;;12.63;;
13951;SDS011;39535;52.192;9.886;2023-10-19T11:43:45;13.97;;;12.97;;
13951;SDS011;39535;52.192;9.886;2023-10-19T11:46:14;13.67;;;12.67;;
13951;SDS011;39535;52.192;9.886;2023-10-19T11:48:42;14.00;;;12.93;;
13951;SDS011;39535;52.192;9.886;2023-10-19T11:51:09;13.67;;;12.67;;
13951;SDS011;39535;52.192;9.886;2023-10-19T11:53:37;14.47;;;13.23;;
13951;SDS011;39535;52.192;9.886;2023-10-19T11:56:05;14.53;;;13.60;;
13951;SDS011;39535;52.192;9.886;2023-10-19T11:58:33;14.67;;;13.57;;
13951;SDS011;39535;52.192;9.886;2023-10-19T12:01:00;15.60;;;14.50;;
13951;SDS011;39535;52.192;9.886;2023-10-19T12:03:29;15.37;;;14.17;;
13951;SDS011;39535;52.192;9.886;2023-10-19T12:05:56;16.83;;;15.60;;
13951;SDS011;39535;52.192;9.886;2023-10-19T12:08:22;16.77;;;15.37;;
13951;SDS011;39535;52.192;9.886;2023-10-19T12:10:49;15.50;;;14.40;;
13951;SDS011;39535;52.192;9.886;2023-10-19T12:13:16;15.57;;;14.47;;
13951;SDS011;39535;52.192;9.886;2023-10-19T12:15:43;15.37;;;14.17;;
13951;SDS011;39535;52.192;9.886;2023-10-19T12:18:16;16.60;;;15.40;;
13951;SDS011;39535;52.192;9.886;2023-10-19T12:20:45;15.03;;;14.00;;
13951;SDS011;39535;52.192;9.886;2023-10-19T12:23:12;14.03;;;13.03;;
13951;SDS011;39535;52.192;9.886;2023-10-19T12:25:38;14.53;;;13.40;;
13951;SDS011;39535;52.192;9.886;2023-10-19T12:28:07;16.10;;;14.73;;
13951;SDS011;39535;52.192;9.886;2023-10-19T12:30:38;14.43;;;13.37;;
13951;SDS011;39535;52.192;9.886;2023-10-19T12:33:06;15.63;;;14.53;;
13951;SDS011;39535;52.192;9.886;2023-10-19T12:35:36;15.53;;;14.30;;
13951;SDS011;39535;52.192;9.886;2023-10-19T12:38:12;15.97;;;14.77;;
13951;SDS011;39535;52.192;9.886;2023-10-19T12:40:44;15.20;;;14.00;;
13951;SDS011;39535;52.192;9.886;2023-10-19T12:43:11;15.17;;;14.07;;
13951;SDS011;39535;52.192;9.886;2023-10-19T12:45:37;15.30;;;14.10;;
13951;SDS011;39535;52.192;9.886;2023-10-19T12:48:04;14.33;;;13.27;;
13951;SDS011;39535;52.192;9.886;2023-10-19T12:50:31;15.33;;;14.23;;
13951;SDS011;39535;52.192;9.886;2023-10-19T12:52:58;16.07;;;14.77;;
13951;SDS011;39535;52.192;9.886;2023-10-19T12:55:26;15.33;;;14.23;;
13951;SDS011;39535;52.192;9.886;2023-10-19T12:57:53;15.70;;;14.50;;
13951;SDS011;39535;52.192;9.886;2023-10-19T13:00:21;16.60;;;15.30;;
13951;SDS011;39535;52.192;9.886;2023-10-19T13:02:51;16.10;;;14.77;;
13951;SDS011;39535;52.192;9.886;2023-10-19T13:05:24;15.93;;;14.63;;
13951;SDS011;39535;52.192;9.886;2023-10-19T13:07:51;14.60;;;13.43;;
13951;SDS011;39535;52.192;9.886;2023-10-19T13:10:18;15.30;;;14.10;;
13951;SDS011;39535;52.192;9.886;2023-10-19T13:12:46;16.70;;;15.10;;
13951;SDS011;39535;52.192;9.886;2023-10-19T13:15:12;15.33;;;14.13;;
13951;SDS011;39535;52.192;9.886;2023-10-19T13:17:39;15.23;;;14.13;;
13951;SDS011;39535;52.192;9.886;2023-10-19T13:20:07;16.03;;;14.60;;
13951;SDS011;39535;52.192;9.886;2023-10-19T13:22:43;16.97;;;15.40;;
13951;SDS011;39535;52.192;9.886;2023-10-19T13:25:09;15.37;;;14.17;;
13951;SDS011;39535;52.192;9.886;2023-10-19T13:27:37;16.90;;;15.50;;
13951;SDS011;39535;52.192;9.886;2023-10-19T13:30:08;16.37;;;15.03;;
13951;SDS011;39535;52.192;9.886;2023-10-19T13:32:36;16.90;;;15.50;;
13951;SDS011;39535;52.192;9.886;2023-10-19T13:35:03;16.97;;;15.57;;
13951;SDS011;39535;52.192;9.886;2023-10-19T13:37:30;16.93;;;15.40;;
13951;SDS011;39535;52.192;9.886;2023-10-19T13:39:57;17.97;;;16.47;;
13951;SDS011;39535;52.192;9.886;2023-10-19T13:42:24;17.57;;;16.03;;
13951;SDS011;39535;52.192;9.886;2023-10-19T13:44:50;17.60;;;16.17;;
13951;SDS011;39535;52.192;9.886;2023-10-19T13:47:18;19.07;;;17.30;;
13951;SDS011;39535;52.192;9.886;2023-10-19T13:49:45;19.43;;;17.83;;
13951;SDS011;39535;52.192;9.886;2023-10-19T13:52:12;18.53;;;16.93;;
13951;SDS011;39535;52.192;9.886;2023-10-19T13:54:40;20.47;;;18.60;;
13951;SDS011;39535;52.192;9.886;2023-10-19T13:57:07;20.23;;;18.23;;
13951;SDS011;39535;52.192;9.886;2023-10-19T13:59:35;21.97;;;19.60;;
13951;SDS011;39535;52.192;9.886;2023-10-19T14:02:02;20.43;;;18.33;;
13951;SDS011;39535;52.192;9.886;2023-10-19T14:04:29;21.03;;;19.03;;
13951;SDS011;39535;52.192;9.886;2023-10-19T14:06:56;22.03;;;20.03;;
13951;SDS011;39535;52.192;9.886;2023-10-19T14:09:22;22.37;;;20.47;;
13951;SDS011;39535;52.192;9.886;2023-10-19T14:11:51;23.47;;;21.17;;
13951;SDS011;39535;52.192;9.886;2023-10-19T14:14:18;23.73;;;21.07;;
13951;SDS011;39535;52.192;9.886;2023-10-19T14:16:44;22.27;;;20.13;;
13951;SDS011;39535;52.192;9.886;2023-10-19T14:19:11;23.60;;;20.77;;
13951;SDS011;39535;52.192;9.886;2023-10-19T14:21:41;22.50;;;20.40;;
13951;SDS011;39535;52.192;9.886;2023-10-19T14:24:11;26.93;;;22.20;;
13951;SDS011;39535;52.192;9.886;2023-10-19T14:26:37;26.37;;;22.40;;
13951;SDS011;39535;52.192;9.886;2023-10-19T14:29:05;29.00;;;24.07;;
13951;SDS011;39535;52.192;9.886;2023-10-19T14:31:32;26.33;;;22.80;;
13951;SDS011;39535;52.192;9.886;2023-10-19T14:33:58;27.83;;;23.57;;
13951;SDS011;39535;52.192;9.886;2023-10-19T14:36:25;26.13;;;22.80;;